sensor_id;sensor_type;location;lat;lon;timestamp;P1;durP1;ratioP1;P2;durP2;ratioP2
23596;SDS011;40226;50.874;4.394;2022-12-29T00:00:09;3.55;;;2.30;;
23596;SDS011;40226;50.874;4.394;2022-12-29T00:02:36;3.85;;;2.10;;
23596;SDS011;40226;50.874;4.394;2022-12-29T00:05:01;3.45;;;1.90;;
23596;SDS011;40226;50.874;4.394;2022-12-29T00:07:27;3.00;;;1.80;;
23596;SDS011;40226;50.874;4.394;2022-12-29T00:09:53;3.80;;;2.00;;
23596;SDS011;40226;50.874;4.394;2022-12-29T00:12:18;2.53;;;1.73;;
23596;SDS011;40226;50.874;4.394;2022-12-29T00:14:44;3.17;;;1.60;;
23596;SDS011;40226;50.874;4.394;2022-12-29T00:17:29;4.68;;;1.60;;
23596;SDS011;40226;50.874;4.394;2022-12-29T00:19:55;2.58;;;1.60;;
23596;SDS011;40226;50.874;4.394;2022-12-29T00:22:39;3.08;;;1.38;;
23596;SDS011;40226;50.874;4.394;2022-12-29T00:28:08;2.45;;;1.20;;
23596;SDS011;40226;50.874;4.394;2022-12-29T00:30:58;3.65;;;1.52;;
23596;SDS011;40226;50.874;4.394;2022-12-29T00:33:43;3.45;;;1.40;;
23596;SDS011;40226;50.874;4.394;2022-12-29T00:36:31;3.20;;;1.20;;
23596;SDS011;40226;50.874;4.394;2022-12-29T00:39:02;2.85;;;1.42;;
23596;SDS011;40226;50.874;4.394;2022-12-29T00:41:51;5.57;;;1.45;;
23596;SDS011;40226;50.874;4.394;2022-12-29T00:44:35;3.25;;;1.30;;
23596;SDS011;40226;50.874;4.394;2022-12-29T00:47:00;2.10;;;1.10;;
23596;SDS011;40226;50.874;4.394;2022-12-29T00:49:29;5.45;;;1.27;;
23596;SDS011;40226;50.874;4.394;2022-12-29T00:52:05;4.18;;;1.23;;
23596;SDS011;40226;50.874;4.394;2022-12-29T00:54:36;4.63;;;1.30;;
23596;SDS011;40226;50.874;4.394;2022-12-29T00:57:03;3.60;;;1.10;;
23596;SDS011;40226;50.874;4.394;2022-12-29T00:59:31;3.45;;;1.38;;
23596;SDS011;40226;50.874;4.394;2022-12-29T01:01:57;4.45;;;1.40;;
23596;SDS011;40226;50.874;4.394;2022-12-29T01:04:24;5.72;;;1.40;;
23596;SDS011;40226;50.874;4.394;2022-12-29T01:06:50;3.85;;;1.75;;
23596;SDS011;40226;50.874;4.394;2022-12-29T01:09:16;4.22;;;1.38;;
23596;SDS011;40226;50.874;4.394;2022-12-29T01:12:01;2.65;;;1.20;;
23596;SDS011;40226;50.874;4.394;2022-12-29T01:14:28;5.78;;;1.50;;
23596;SDS011;40226;50.874;4.394;2022-12-29T01:16:54;3.67;;;1.10;;
23596;SDS011;40226;50.874;4.394;2022-12-29T01:19:20;3.05;;;1.00;;
23596;SDS011;40226;50.874;4.394;2022-12-29T01:21:46;3.55;;;1.30;;
23596;SDS011;40226;50.874;4.394;2022-12-29T01:24:14;4.43;;;1.30;;
23596;SDS011;40226;50.874;4.394;2022-12-29T01:26:41;3.25;;;1.45;;
23596;SDS011;40226;50.874;4.394;2022-12-29T01:29:07;6.60;;;1.73;;
23596;SDS011;40226;50.874;4.394;2022-12-29T01:31:34;4.05;;;1.30;;
23596;SDS011;40226;50.874;4.394;2022-12-29T01:36:30;5.68;;;1.38;;
23596;SDS011;40226;50.874;4.394;2022-12-29T01:38:56;5.35;;;1.67;;
23596;SDS011;40226;50.874;4.394;2022-12-29T01:41:22;3.63;;;1.77;;
23596;SDS011;40226;50.874;4.394;2022-12-29T01:46:23;4.00;;;1.83;;
23596;SDS011;40226;50.874;4.394;2022-12-29T01:48:55;4.43;;;1.80;;
23596;SDS011;40226;50.874;4.394;2022-12-29T01:51:22;2.40;;;1.45;;
23596;SDS011;40226;50.874;4.394;2022-12-29T01:53:51;4.75;;;1.80;;
23596;SDS011;40226;50.874;4.394;2022-12-29T01:56:19;1.67;;;0.95;;
23596;SDS011;40226;50.874;4.394;2022-12-29T01:58:46;6.07;;;1.60;;
23596;SDS011;40226;50.874;4.394;2022-12-29T02:01:18;4.20;;;1.20;;
23596;SDS011;40226;50.874;4.394;2022-12-29T02:08:53;4.03;;;1.20;;
23596;SDS011;40226;50.874;4.394;2022-12-29T02:11:21;3.38;;;1.00;;
23596;SDS011;40226;50.874;4.394;2022-12-29T02:13:49;3.30;;;0.80;;
23596;SDS011;40226;50.874;4.394;2022-12-29T02:16:30;5.55;;;0.90;;
23596;SDS011;40226;50.874;4.394;2022-12-29T02:27:53;5.93;;;1.08;;
23596;SDS011;40226;50.874;4.394;2022-12-29T02:36:28;0.10;;;0.10;;
23596;SDS011;40226;50.874;4.394;2022-12-29T02:39:19;0.20;;;0.20;;
23596;SDS011;40226;50.874;4.394;2022-12-29T02:47:14;0.20;;;0.20;;
23596;SDS011;40226;50.874;4.394;2022-12-29T02:52:44;0.10;;;0.10;;
23596;SDS011;40226;50.874;4.394;2022-12-29T02:55:14;0.60;;;0.55;;
23596;SDS011;40226;50.874;4.394;2022-12-29T02:57:40;0.15;;;0.15;;
23596;SDS011;40226;50.874;4.394;2022-12-29T03:00:07;0.20;;;0.20;;
23596;SDS011;40226;50.874;4.394;2022-12-29T03:08:44;0.20;;;0.20;;
23596;SDS011;40226;50.874;4.394;2022-12-29T03:11:41;0.20;;;0.20;;
23596;SDS011;40226;50.874;4.394;2022-12-29T03:14:32;0.20;;;0.20;;
23596;SDS011;40226;50.874;4.394;2022-12-29T03:17:27;0.10;;;0.10;;
23596;SDS011;40226;50.874;4.394;2022-12-29T03:20:04;1.75;;;1.20;;
23596;SDS011;40226;50.874;4.394;2022-12-29T03:22:33;0.15;;;0.15;;
23596;SDS011;40226;50.874;4.394;2022-12-29T03:25:05;0.20;;;0.20;;
23596;SDS011;40226;50.874;4.394;2022-12-29T03:27:47;0.20;;;0.20;;
23596;SDS011;40226;50.874;4.394;2022-12-29T03:30:15;0.20;;;0.20;;
23596;SDS011;40226;50.874;4.394;2022-12-29T03:32:42;0.20;;;0.20;;
23596;SDS011;40226;50.874;4.394;2022-12-29T03:35:11;0.20;;;0.20;;
23596;SDS011;40226;50.874;4.394;2022-12-29T03:37:42;1.33;;;0.30;;
23596;SDS011;40226;50.874;4.394;2022-12-29T03:40:13;0.20;;;0.20;;
23596;SDS011;40226;50.874;4.394;2022-12-29T03:42:39;0.13;;;0.13;;
23596;SDS011;40226;50.874;4.394;2022-12-29T03:45:06;0.17;;;0.17;;
23596;SDS011;40226;50.874;4.394;2022-12-29T03:47:32;0.10;;;0.10;;
23596;SDS011;40226;50.874;4.394;2022-12-29T03:49:58;0.20;;;0.20;;
23596;SDS011;40226;50.874;4.394;2022-12-29T03:52:24;0.25;;;0.25;;
23596;SDS011;40226;50.874;4.394;2022-12-29T03:54:49;0.15;;;0.15;;
23596;SDS011;40226;50.874;4.394;2022-12-29T03:57:15;0.57;;;0.57;;
23596;SDS011;40226;50.874;4.394;2022-12-29T03:59:41;0.20;;;0.20;;
23596;SDS011;40226;50.874;4.394;2022-12-29T04:02:06;0.10;;;0.10;;
23596;SDS011;40226;50.874;4.394;2022-12-29T04:04:32;0.10;;;0.10;;
23596;SDS011;40226;50.874;4.394;2022-12-29T04:06:57;0.10;;;0.10;;
23596;SDS011;40226;50.874;4.394;2022-12-29T04:09:23;0.25;;;0.25;;
23596;SDS011;40226;50.874;4.394;2022-12-29T04:11:48;0.57;;;0.47;;
23596;SDS011;40226;50.874;4.394;2022-12-29T04:14:14;0.20;;;0.20;;
23596;SDS011;40226;50.874;4.394;2022-12-29T04:16:40;0.35;;;0.35;;
23596;SDS011;40226;50.874;4.394;2022-12-29T04:19:06;0.10;;;0.10;;
23596;SDS011;40226;50.874;4.394;2022-12-29T04:21:32;0.10;;;0.10;;
23596;SDS011;40226;50.874;4.394;2022-12-29T04:23:58;3.13;;;1.00;;
23596;SDS011;40226;50.874;4.394;2022-12-29T04:26:23;0.20;;;0.20;;
23596;SDS011;40226;50.874;4.394;2022-12-29T04:28:49;1.45;;;1.00;;
23596;SDS011;40226;50.874;4.394;2022-12-29T04:31:14;0.20;;;0.20;;
23596;SDS011;40226;50.874;4.394;2022-12-29T04:33:40;0.95;;;0.95;;
23596;SDS011;40226;50.874;4.394;2022-12-29T04:36:06;0.10;;;0.10;;
23596;SDS011;40226;50.874;4.394;2022-12-29T04:38:31;0.50;;;0.50;;
23596;SDS011;40226;50.874;4.394;2022-12-29T04:40:59;0.68;;;0.68;;
23596;SDS011;40226;50.874;4.394;2022-12-29T04:43:25;0.20;;;0.20;;
23596;SDS011;40226;50.874;4.394;2022-12-29T04:45:51;0.65;;;0.65;;
23596;SDS011;40226;50.874;4.394;2022-12-29T04:48:17;0.20;;;0.20;;
23596;SDS011;40226;50.874;4.394;2022-12-29T04:50:43;0.10;;;0.10;;
23596;SDS011;40226;50.874;4.394;2022-12-29T04:53:09;0.20;;;0.20;;
23596;SDS011;40226;50.874;4.394;2022-12-29T04:55:35;0.10;;;0.10;;
23596;SDS011;40226;50.874;4.394;2022-12-29T04:58:01;0.20;;;0.20;;
23596;SDS011;40226;50.874;4.394;2022-12-29T05:00:26;0.10;;;0.10;;
23596;SDS011;40226;50.874;4.394;2022-12-29T05:02:52;0.20;;;0.20;;
23596;SDS011;40226;50.874;4.394;2022-12-29T05:05:17;0.30;;;0.30;;
23596;SDS011;40226;50.874;4.394;2022-12-29T05:07:43;0.20;;;0.20;;
23596;SDS011;40226;50.874;4.394;2022-12-29T05:10:09;0.40;;;0.40;;
23596;SDS011;40226;50.874;4.394;2022-12-29T05:12:36;0.20;;;0.20;;
23596;SDS011;40226;50.874;4.394;2022-12-29T05:15:03;0.20;;;0.20;;
23596;SDS011;40226;50.874;4.394;2022-12-29T05:17:29;0.20;;;0.20;;
23596;SDS011;40226;50.874;4.394;2022-12-29T05:19:55;1.55;;;0.80;;
23596;SDS011;40226;50.874;4.394;2022-12-29T05:22:21;0.20;;;0.20;;
23596;SDS011;40226;50.874;4.394;2022-12-29T05:24:46;0.10;;;0.10;;
23596;SDS011;40226;50.874;4.394;2022-12-29T05:27:12;0.20;;;0.20;;
23596;SDS011;40226;50.874;4.394;2022-12-29T05:29:38;0.38;;;0.38;;
23596;SDS011;40226;50.874;4.394;2022-12-29T05:32:04;0.30;;;0.30;;
23596;SDS011;40226;50.874;4.394;2022-12-29T05:34:30;0.20;;;0.20;;
23596;SDS011;40226;50.874;4.394;2022-12-29T05:36:55;0.10;;;0.10;;
23596;SDS011;40226;50.874;4.394;2022-12-29T05:39:21;0.20;;;0.20;;
23596;SDS011;40226;50.874;4.394;2022-12-29T05:41:47;0.17;;;0.17;;
23596;SDS011;40226;50.874;4.394;2022-12-29T05:44:12;0.93;;;0.93;;
23596;SDS011;40226;50.874;4.394;2022-12-29T05:46:38;0.45;;;0.45;;
23596;SDS011;40226;50.874;4.394;2022-12-29T05:49:05;0.30;;;0.30;;
23596;SDS011;40226;50.874;4.394;2022-12-29T05:51:30;0.20;;;0.20;;
23596;SDS011;40226;50.874;4.394;2022-12-29T05:53:56;0.20;;;0.20;;
23596;SDS011;40226;50.874;4.394;2022-12-29T05:56:22;0.20;;;0.20;;
23596;SDS011;40226;50.874;4.394;2022-12-29T05:58:48;0.10;;;0.10;;
23596;SDS011;40226;50.874;4.394;2022-12-29T06:01:13;0.20;;;0.20;;
23596;SDS011;40226;50.874;4.394;2022-12-29T06:03:39;0.20;;;0.20;;
23596;SDS011;40226;50.874;4.394;2022-12-29T06:06:05;0.13;;;0.13;;
23596;SDS011;40226;50.874;4.394;2022-12-29T06:08:30;0.40;;;0.40;;
23596;SDS011;40226;50.874;4.394;2022-12-29T06:10:56;0.30;;;0.30;;
23596;SDS011;40226;50.874;4.394;2022-12-29T06:13:21;0.10;;;0.10;;
23596;SDS011;40226;50.874;4.394;2022-12-29T06:15:47;0.55;;;0.45;;
23596;SDS011;40226;50.874;4.394;2022-12-29T06:18:14;0.10;;;0.10;;
23596;SDS011;40226;50.874;4.394;2022-12-29T06:20:40;0.52;;;0.52;;
23596;SDS011;40226;50.874;4.394;2022-12-29T06:23:06;0.25;;;0.25;;
23596;SDS011;40226;50.874;4.394;2022-12-29T06:25:31;0.20;;;0.20;;
23596;SDS011;40226;50.874;4.394;2022-12-29T06:27:58;0.20;;;0.20;;
23596;SDS011;40226;50.874;4.394;2022-12-29T06:30:24;2.40;;;1.15;;
23596;SDS011;40226;50.874;4.394;2022-12-29T06:32:51;0.20;;;0.20;;
23596;SDS011;40226;50.874;4.394;2022-12-29T06:35:17;0.20;;;0.20;;
23596;SDS011;40226;50.874;4.394;2022-12-29T06:37:43;0.20;;;0.20;;
23596;SDS011;40226;50.874;4.394;2022-12-29T06:40:09;0.20;;;0.20;;
23596;SDS011;40226;50.874;4.394;2022-12-29T06:42:35;0.20;;;0.20;;
23596;SDS011;40226;50.874;4.394;2022-12-29T06:45:00;0.65;;;0.60;;
23596;SDS011;40226;50.874;4.394;2022-12-29T06:47:26;1.17;;;1.17;;
23596;SDS011;40226;50.874;4.394;2022-12-29T06:49:52;0.95;;;0.95;;
23596;SDS011;40226;50.874;4.394;2022-12-29T06:52:17;0.15;;;0.15;;
23596;SDS011;40226;50.874;4.394;2022-12-29T06:54:43;1.45;;;0.95;;
23596;SDS011;40226;50.874;4.394;2022-12-29T06:57:09;1.48;;;1.38;;
23596;SDS011;40226;50.874;4.394;2022-12-29T06:59:34;0.20;;;0.20;;
23596;SDS011;40226;50.874;4.394;2022-12-29T07:02:00;0.40;;;0.40;;
23596;SDS011;40226;50.874;4.394;2022-12-29T07:04:27;0.20;;;0.20;;
23596;SDS011;40226;50.874;4.394;2022-12-29T07:06:53;0.45;;;0.45;;
23596;SDS011;40226;50.874;4.394;2022-12-29T07:09:18;0.20;;;0.20;;
23596;SDS011;40226;50.874;4.394;2022-12-29T07:11:44;0.63;;;0.63;;
23596;SDS011;40226;50.874;4.394;2022-12-29T07:14:10;0.20;;;0.20;;
23596;SDS011;40226;50.874;4.394;2022-12-29T07:16:36;1.17;;;0.95;;
23596;SDS011;40226;50.874;4.394;2022-12-29T07:19:02;0.13;;;0.13;;
23596;SDS011;40226;50.874;4.394;2022-12-29T07:21:28;12.65;;;1.80;;
23596;SDS011;40226;50.874;4.394;2022-12-29T07:23:54;8.75;;;1.95;;
23596;SDS011;40226;50.874;4.394;2022-12-29T07:26:19;11.07;;;2.42;;
23596;SDS011;40226;50.874;4.394;2022-12-29T07:28:45;15.50;;;2.45;;
23596;SDS011;40226;50.874;4.394;2022-12-29T07:31:13;9.80;;;2.05;;
23596;SDS011;40226;50.874;4.394;2022-12-29T07:33:41;13.02;;;2.35;;
23596;SDS011;40226;50.874;4.394;2022-12-29T07:36:08;10.40;;;2.05;;
23596;SDS011;40226;50.874;4.394;2022-12-29T07:38:34;10.88;;;2.00;;
23596;SDS011;40226;50.874;4.394;2022-12-29T07:40:59;16.98;;;2.67;;
23596;SDS011;40226;50.874;4.394;2022-12-29T07:43:25;13.82;;;2.58;;
23596;SDS011;40226;50.874;4.394;2022-12-29T07:45:51;11.40;;;1.92;;
23596;SDS011;40226;50.874;4.394;2022-12-29T07:48:16;11.98;;;2.22;;
23596;SDS011;40226;50.874;4.394;2022-12-29T07:50:42;10.27;;;2.28;;
23596;SDS011;40226;50.874;4.394;2022-12-29T07:53:07;11.93;;;2.25;;
23596;SDS011;40226;50.874;4.394;2022-12-29T07:55:33;12.68;;;2.38;;
23596;SDS011;40226;50.874;4.394;2022-12-29T07:57:59;16.73;;;2.38;;
23596;SDS011;40226;50.874;4.394;2022-12-29T08:00:24;10.18;;;1.80;;
23596;SDS011;40226;50.874;4.394;2022-12-29T08:02:50;15.95;;;2.30;;
23596;SDS011;40226;50.874;4.394;2022-12-29T08:05:16;10.40;;;2.05;;
23596;SDS011;40226;50.874;4.394;2022-12-29T08:07:45;10.55;;;2.13;;
23596;SDS011;40226;50.874;4.394;2022-12-29T08:10:12;11.18;;;1.90;;
23596;SDS011;40226;50.874;4.394;2022-12-29T08:12:38;10.82;;;1.90;;
23596;SDS011;40226;50.874;4.394;2022-12-29T08:15:05;13.15;;;2.10;;
23596;SDS011;40226;50.874;4.394;2022-12-29T08:17:32;11.52;;;1.85;;
23596;SDS011;40226;50.874;4.394;2022-12-29T08:19:58;14.02;;;2.28;;
23596;SDS011;40226;50.874;4.394;2022-12-29T08:22:24;9.05;;;1.90;;
23596;SDS011;40226;50.874;4.394;2022-12-29T08:24:49;12.60;;;2.42;;
23596;SDS011;40226;50.874;4.394;2022-12-29T08:27:15;15.75;;;2.50;;
23596;SDS011;40226;50.874;4.394;2022-12-29T08:29:41;9.25;;;2.25;;
23596;SDS011;40226;50.874;4.394;2022-12-29T08:32:06;10.77;;;2.00;;
23596;SDS011;40226;50.874;4.394;2022-12-29T08:34:32;11.00;;;2.05;;
23596;SDS011;40226;50.874;4.394;2022-12-29T08:36:58;8.50;;;1.83;;
23596;SDS011;40226;50.874;4.394;2022-12-29T08:39:23;15.07;;;2.97;;
23596;SDS011;40226;50.874;4.394;2022-12-29T08:41:49;12.57;;;1.92;;
23596;SDS011;40226;50.874;4.394;2022-12-29T08:44:15;5.30;;;1.60;;
23596;SDS011;40226;50.874;4.394;2022-12-29T08:46:41;12.00;;;1.90;;
23596;SDS011;40226;50.874;4.394;2022-12-29T08:49:06;18.08;;;2.47;;
23596;SDS011;40226;50.874;4.394;2022-12-29T08:51:32;11.85;;;1.60;;
23596;SDS011;40226;50.874;4.394;2022-12-29T08:53:58;14.45;;;2.70;;
23596;SDS011;40226;50.874;4.394;2022-12-29T08:56:24;11.05;;;2.40;;
23596;SDS011;40226;50.874;4.394;2022-12-29T08:58:50;11.38;;;1.80;;
23596;SDS011;40226;50.874;4.394;2022-12-29T09:01:17;13.35;;;2.10;;
23596;SDS011;40226;50.874;4.394;2022-12-29T09:03:42;13.77;;;2.75;;
23596;SDS011;40226;50.874;4.394;2022-12-29T09:06:08;15.70;;;2.42;;
23596;SDS011;40226;50.874;4.394;2022-12-29T09:08:34;7.95;;;1.90;;
23596;SDS011;40226;50.874;4.394;2022-12-29T09:11:06;19.58;;;2.85;;
23596;SDS011;40226;50.874;4.394;2022-12-29T09:13:58;15.50;;;3.08;;
23596;SDS011;40226;50.874;4.394;2022-12-29T09:16:24;13.68;;;2.55;;
23596;SDS011;40226;50.874;4.394;2022-12-29T09:18:50;15.27;;;2.10;;
23596;SDS011;40226;50.874;4.394;2022-12-29T09:21:15;8.55;;;2.05;;
23596;SDS011;40226;50.874;4.394;2022-12-29T09:23:41;16.20;;;2.65;;
23596;SDS011;40226;50.874;4.394;2022-12-29T09:26:07;18.02;;;3.38;;
23596;SDS011;40226;50.874;4.394;2022-12-29T09:28:33;14.65;;;2.70;;
23596;SDS011;40226;50.874;4.394;2022-12-29T09:30:59;16.13;;;2.22;;
23596;SDS011;40226;50.874;4.394;2022-12-29T09:33:25;17.58;;;2.88;;
23596;SDS011;40226;50.874;4.394;2022-12-29T09:35:52;20.17;;;3.03;;
23596;SDS011;40226;50.874;4.394;2022-12-29T09:38:19;17.92;;;2.67;;
23596;SDS011;40226;50.874;4.394;2022-12-29T09:40:47;20.45;;;2.53;;
23596;SDS011;40226;50.874;4.394;2022-12-29T09:49:04;16.45;;;2.33;;
23596;SDS011;40226;50.874;4.394;2022-12-29T09:51:35;18.30;;;2.90;;
23596;SDS011;40226;50.874;4.394;2022-12-29T09:54:04;16.35;;;3.20;;
23596;SDS011;40226;50.874;4.394;2022-12-29T09:56:47;11.45;;;1.85;;
23596;SDS011;40226;50.874;4.394;2022-12-29T09:59:15;17.27;;;2.58;;
23596;SDS011;40226;50.874;4.394;2022-12-29T10:04:27;14.65;;;2.83;;
23596;SDS011;40226;50.874;4.394;2022-12-29T10:07:01;21.80;;;3.33;;
23596;SDS011;40226;50.874;4.394;2022-12-29T10:09:38;17.67;;;2.60;;
23596;SDS011;40226;50.874;4.394;2022-12-29T10:24:32;16.40;;;2.72;;
23596;SDS011;40226;50.874;4.394;2022-12-29T10:27:02;17.73;;;3.13;;
23596;SDS011;40226;50.874;4.394;2022-12-29T10:29:35;17.40;;;2.80;;
23596;SDS011;40226;50.874;4.394;2022-12-29T10:32:18;13.50;;;3.03;;
23596;SDS011;40226;50.874;4.394;2022-12-29T10:34:47;21.15;;;3.10;;
23596;SDS011;40226;50.874;4.394;2022-12-29T10:37:38;15.13;;;3.03;;
23596;SDS011;40226;50.874;4.394;2022-12-29T10:40:43;10.02;;;2.28;;
23596;SDS011;40226;50.874;4.394;2022-12-29T10:45:45;13.90;;;2.38;;
23596;SDS011;40226;50.874;4.394;2022-12-29T10:48:15;16.75;;;3.08;;
23596;SDS011;40226;50.874;4.394;2022-12-29T10:50:50;15.23;;;2.63;;
23596;SDS011;40226;50.874;4.394;2022-12-29T10:53:22;18.65;;;2.97;;
23596;SDS011;40226;50.874;4.394;2022-12-29T10:55:50;12.68;;;3.05;;
23596;SDS011;40226;50.874;4.394;2022-12-29T10:58:16;18.00;;;2.80;;
23596;SDS011;40226;50.874;4.394;2022-12-29T11:00:43;17.80;;;2.65;;
23596;SDS011;40226;50.874;4.394;2022-12-29T11:08:40;15.13;;;2.40;;
23596;SDS011;40226;50.874;4.394;2022-12-29T11:11:13;22.88;;;3.95;;
23596;SDS011;40226;50.874;4.394;2022-12-29T11:13:50;17.88;;;3.10;;
23596;SDS011;40226;50.874;4.394;2022-12-29T11:16:41;24.75;;;2.90;;
23596;SDS011;40226;50.874;4.394;2022-12-29T11:19:28;11.23;;;2.15;;
23596;SDS011;40226;50.874;4.394;2022-12-29T11:22:11;14.27;;;2.70;;
23596;SDS011;40226;50.874;4.394;2022-12-29T11:24:46;12.05;;;2.88;;
23596;SDS011;40226;50.874;4.394;2022-12-29T11:27:18;17.13;;;3.60;;
23596;SDS011;40226;50.874;4.394;2022-12-29T11:29:48;10.38;;;2.67;;
23596;SDS011;40226;50.874;4.394;2022-12-29T11:34:45;18.60;;;3.60;;
23596;SDS011;40226;50.874;4.394;2022-12-29T11:37:13;13.30;;;3.03;;
23596;SDS011;40226;50.874;4.394;2022-12-29T11:39:57;18.63;;;2.88;;
23596;SDS011;40226;50.874;4.394;2022-12-29T11:42:35;12.65;;;2.90;;
23596;SDS011;40226;50.874;4.394;2022-12-29T11:45:33;19.70;;;3.03;;
23596;SDS011;40226;50.874;4.394;2022-12-29T11:50:48;15.13;;;2.92;;
23596;SDS011;40226;50.874;4.394;2022-12-29T11:53:27;17.73;;;3.63;;
23596;SDS011;40226;50.874;4.394;2022-12-29T11:56:09;15.07;;;3.38;;
23596;SDS011;40226;50.874;4.394;2022-12-29T11:58:39;17.25;;;3.35;;
23596;SDS011;40226;50.874;4.394;2022-12-29T12:01:05;21.92;;;3.42;;
23596;SDS011;40226;50.874;4.394;2022-12-29T12:04:01;14.07;;;2.90;;
23596;SDS011;40226;50.874;4.394;2022-12-29T12:06:27;19.77;;;3.10;;
23596;SDS011;40226;50.874;4.394;2022-12-29T12:08:57;14.00;;;3.00;;
23596;SDS011;40226;50.874;4.394;2022-12-29T12:11:28;18.40;;;3.47;;
23596;SDS011;40226;50.874;4.394;2022-12-29T12:14:02;22.73;;;4.78;;
23596;SDS011;40226;50.874;4.394;2022-12-29T12:19:32;15.32;;;3.28;;
23596;SDS011;40226;50.874;4.394;2022-12-29T12:22:03;18.67;;;3.38;;
23596;SDS011;40226;50.874;4.394;2022-12-29T12:32:09;15.05;;;3.67;;
23596;SDS011;40226;50.874;4.394;2022-12-29T12:34:48;12.55;;;3.20;;
23596;SDS011;40226;50.874;4.394;2022-12-29T12:42:55;14.52;;;3.80;;
23596;SDS011;40226;50.874;4.394;2022-12-29T12:50:52;14.38;;;3.30;;
23596;SDS011;40226;50.874;4.394;2022-12-29T12:56:41;11.70;;;3.30;;
23596;SDS011;40226;50.874;4.394;2022-12-29T13:07:50;19.10;;;4.00;;
23596;SDS011;40226;50.874;4.394;2022-12-29T13:10:30;15.18;;;2.78;;
23596;SDS011;40226;50.874;4.394;2022-12-29T13:13:16;15.75;;;3.40;;
23596;SDS011;40226;50.874;4.394;2022-12-29T13:18:49;12.13;;;3.03;;
23596;SDS011;40226;50.874;4.394;2022-12-29T13:27:26;14.95;;;2.83;;
23596;SDS011;40226;50.874;4.394;2022-12-29T13:30:20;12.07;;;2.93;;
23596;SDS011;40226;50.874;4.394;2022-12-29T13:38:14;16.35;;;2.80;;
23596;SDS011;40226;50.874;4.394;2022-12-29T13:41:25;12.80;;;3.17;;
23596;SDS011;40226;50.874;4.394;2022-12-29T13:43:52;14.88;;;2.95;;
23596;SDS011;40226;50.874;4.394;2022-12-29T13:46:23;15.40;;;2.78;;
23596;SDS011;40226;50.874;4.394;2022-12-29T13:51:24;15.57;;;3.42;;
23596;SDS011;40226;50.874;4.394;2022-12-29T13:56:21;16.42;;;3.80;;
23596;SDS011;40226;50.874;4.394;2022-12-29T14:01:58;14.68;;;3.47;;
23596;SDS011;40226;50.874;4.394;2022-12-29T14:04:34;14.63;;;3.30;;
23596;SDS011;40226;50.874;4.394;2022-12-29T14:07:05;16.63;;;3.47;;
23596;SDS011;40226;50.874;4.394;2022-12-29T14:09:46;17.25;;;3.95;;
23596;SDS011;40226;50.874;4.394;2022-12-29T14:12:20;11.73;;;2.78;;
23596;SDS011;40226;50.874;4.394;2022-12-29T14:17:35;14.38;;;3.38;;
23596;SDS011;40226;50.874;4.394;2022-12-29T14:20:02;19.05;;;3.63;;
23596;SDS011;40226;50.874;4.394;2022-12-29T14:22:32;18.60;;;3.75;;
23596;SDS011;40226;50.874;4.394;2022-12-29T14:24:58;15.43;;;3.42;;
23596;SDS011;40226;50.874;4.394;2022-12-29T14:29:53;25.83;;;3.55;;
23596;SDS011;40226;50.874;4.394;2022-12-29T14:34:57;16.92;;;3.47;;
23596;SDS011;40226;50.874;4.394;2022-12-29T14:37:46;18.98;;;4.50;;
23596;SDS011;40226;50.874;4.394;2022-12-29T14:40:19;18.00;;;4.93;;
23596;SDS011;40226;50.874;4.394;2022-12-29T14:42:51;12.57;;;3.03;;
23596;SDS011;40226;50.874;4.394;2022-12-29T14:47:51;14.13;;;2.50;;
23596;SDS011;40226;50.874;4.394;2022-12-29T14:50:25;11.80;;;2.70;;
23596;SDS011;40226;50.874;4.394;2022-12-29T14:53:05;12.88;;;2.67;;
23596;SDS011;40226;50.874;4.394;2022-12-29T14:55:48;10.50;;;2.75;;
23596;SDS011;40226;50.874;4.394;2022-12-29T15:01:00;15.77;;;2.50;;
23596;SDS011;40226;50.874;4.394;2022-12-29T15:03:35;13.52;;;2.42;;
23596;SDS011;40226;50.874;4.394;2022-12-29T15:06:09;15.13;;;3.05;;
23596;SDS011;40226;50.874;4.394;2022-12-29T15:08:49;13.98;;;3.00;;
23596;SDS011;40226;50.874;4.394;2022-12-29T15:11:21;9.55;;;2.17;;
23596;SDS011;40226;50.874;4.394;2022-12-29T15:13:49;6.30;;;2.22;;
23596;SDS011;40226;50.874;4.394;2022-12-29T15:18:49;15.68;;;2.78;;
23596;SDS011;40226;50.874;4.394;2022-12-29T15:21:15;19.67;;;3.85;;
23596;SDS011;40226;50.874;4.394;2022-12-29T15:23:42;15.93;;;3.42;;
23596;SDS011;40226;50.874;4.394;2022-12-29T15:26:10;11.45;;;2.67;;
23596;SDS011;40226;50.874;4.394;2022-12-29T15:28:43;8.50;;;2.80;;
23596;SDS011;40226;50.874;4.394;2022-12-29T15:31:14;13.30;;;2.80;;
23596;SDS011;40226;50.874;4.394;2022-12-29T15:33:41;9.77;;;3.05;;
23596;SDS011;40226;50.874;4.394;2022-12-29T15:36:24;15.25;;;3.00;;
23596;SDS011;40226;50.874;4.394;2022-12-29T15:38:52;14.38;;;3.28;;
23596;SDS011;40226;50.874;4.394;2022-12-29T15:46:18;10.30;;;3.45;;
23596;SDS011;40226;50.874;4.394;2022-12-29T15:48:44;12.70;;;3.80;;
23596;SDS011;40226;50.874;4.394;2022-12-29T15:51:33;15.32;;;3.53;;
23596;SDS011;40226;50.874;4.394;2022-12-29T15:53:58;22.75;;;5.50;;
23596;SDS011;40226;50.874;4.394;2022-12-29T15:56:24;19.23;;;4.97;;
23596;SDS011;40226;50.874;4.394;2022-12-29T15:58:54;17.35;;;4.60;;
23596;SDS011;40226;50.874;4.394;2022-12-29T16:03:52;16.02;;;4.47;;
23596;SDS011;40226;50.874;4.394;2022-12-29T16:06:26;24.42;;;6.18;;
23596;SDS011;40226;50.874;4.394;2022-12-29T16:08:56;17.45;;;5.53;;
23596;SDS011;40226;50.874;4.394;2022-12-29T16:11:24;18.17;;;4.90;;
23596;SDS011;40226;50.874;4.394;2022-12-29T16:13:55;17.63;;;4.82;;
23596;SDS011;40226;50.874;4.394;2022-12-29T16:16:31;18.33;;;4.40;;
23596;SDS011;40226;50.874;4.394;2022-12-29T16:19:06;23.10;;;4.45;;
23596;SDS011;40226;50.874;4.394;2022-12-29T16:21:42;26.08;;;5.28;;
23596;SDS011;40226;50.874;4.394;2022-12-29T16:24:14;24.35;;;5.45;;
23596;SDS011;40226;50.874;4.394;2022-12-29T16:27:30;16.10;;;5.25;;
23596;SDS011;40226;50.874;4.394;2022-12-29T16:30:25;28.85;;;5.85;;
23596;SDS011;40226;50.874;4.394;2022-12-29T16:32:58;23.67;;;6.18;;
23596;SDS011;40226;50.874;4.394;2022-12-29T16:35:29;23.05;;;5.65;;
23596;SDS011;40226;50.874;4.394;2022-12-29T16:42:46;24.80;;;6.28;;
23596;SDS011;40226;50.874;4.394;2022-12-29T16:45:06;23.92;;;5.22;;
23596;SDS011;40226;50.874;4.394;2022-12-29T16:50:31;20.58;;;5.85;;
23596;SDS011;40226;50.874;4.394;2022-12-29T16:52:59;20.05;;;4.65;;
23596;SDS011;40226;50.874;4.394;2022-12-29T16:55:25;24.65;;;5.05;;
23596;SDS011;40226;50.874;4.394;2022-12-29T16:57:51;23.25;;;4.70;;
23596;SDS011;40226;50.874;4.394;2022-12-29T17:00:22;28.35;;;5.22;;
23596;SDS011;40226;50.874;4.394;2022-12-29T17:02:49;24.50;;;5.57;;
23596;SDS011;40226;50.874;4.394;2022-12-29T17:05:18;22.27;;;4.93;;
23596;SDS011;40226;50.874;4.394;2022-12-29T17:07:44;29.08;;;5.20;;
23596;SDS011;40226;50.874;4.394;2022-12-29T17:10:10;22.55;;;5.35;;
23596;SDS011;40226;50.874;4.394;2022-12-29T17:12:56;23.40;;;5.43;;
23596;SDS011;40226;50.874;4.394;2022-12-29T17:15:25;26.65;;;5.85;;
23596;SDS011;40226;50.874;4.394;2022-12-29T17:17:56;22.13;;;4.78;;
23596;SDS011;40226;50.874;4.394;2022-12-29T17:20:29;23.85;;;5.93;;
23596;SDS011;40226;50.874;4.394;2022-12-29T17:22:58;22.42;;;3.80;;
23596;SDS011;40226;50.874;4.394;2022-12-29T17:25:34;22.50;;;5.35;;
23596;SDS011;40226;50.874;4.394;2022-12-29T17:28:02;14.70;;;4.47;;
23596;SDS011;40226;50.874;4.394;2022-12-29T17:30:44;18.10;;;4.68;;
23596;SDS011;40226;50.874;4.394;2022-12-29T17:33:11;19.63;;;5.13;;
23596;SDS011;40226;50.874;4.394;2022-12-29T17:35:39;22.77;;;4.68;;
23596;SDS011;40226;50.874;4.394;2022-12-29T17:38:18;22.20;;;4.75;;
23596;SDS011;40226;50.874;4.394;2022-12-29T17:40:48;23.48;;;4.75;;